createdAt,value
2022-07-27T00:01:50.609Z,101257.44
2022-07-27T00:04:19.017Z,101266.50
2022-07-27T00:06:46.482Z,101268.41
2022-07-27T00:09:13.578Z,101266.66
2022-07-27T00:11:40.584Z,101265.00
2022-07-27T00:14:07.441Z,101270.47
2022-07-27T00:16:34.362Z,101255.34
2022-07-27T00:19:01.241Z,101260.78
2022-07-27T00:21:28.114Z,101256.41
2022-07-27T00:23:56.400Z,101260.09
2022-07-27T00:26:23.231Z,101263.78
2022-07-27T00:28:50.701Z,101254.88
2022-07-27T00:31:17.983Z,101256.72
2022-07-27T00:33:45.064Z,101255.00
2022-07-27T00:36:12.036Z,101259.53
2022-07-27T00:38:39.030Z,101266.78
2022-07-27T00:41:05.952Z,101260.59
2022-07-27T00:43:33.843Z,101255.31
2022-07-27T00:46:04.957Z,101253.59
2022-07-27T00:48:32.234Z,101254.53
2022-07-27T00:50:59.573Z,101253.69
2022-07-27T00:53:26.482Z,101262.66
2022-07-27T00:55:53.347Z,101260.94
2022-07-27T00:58:20.141Z,101252.91
2022-07-27T01:00:46.935Z,101268.13
2022-07-27T01:03:16.318Z,101256.56
2022-07-27T01:05:44.015Z,101256.59
2022-07-27T01:08:15.188Z,101257.50
2022-07-27T01:10:43.627Z,101258.41
2022-07-27T01:13:13.049Z,101257.53
2022-07-27T01:15:41.522Z,101259.38
2022-07-27T01:18:15.174Z,101262.09
2022-07-27T01:20:42.962Z,101256.75
2022-07-27T01:23:11.023Z,101252.28
2022-07-27T01:25:41.647Z,101259.50
2022-07-27T01:28:08.470Z,101257.72
2022-07-27T01:30:35.553Z,101252.41
2022-07-27T01:33:08.039Z,101252.41
2022-07-27T01:35:36.946Z,101249.78
2022-07-27T01:38:04.598Z,101257.84
2022-07-27T01:40:31.921Z,101255.25
2022-07-27T01:42:58.715Z,101257.97
2022-07-27T01:45:25.708Z,101256.25
2022-07-27T01:47:52.494Z,101261.66
2022-07-27T01:50:19.404Z,101266.22
2022-07-27T01:52:46.265Z,101259.97
2022-07-27T01:55:13.084Z,101264.53
2022-07-27T01:57:40.259Z,101260.16
2022-07-27T02:00:11.145Z,101267.34
2022-07-27T02:02:38.493Z,101266.56
2022-07-27T02:05:06.036Z,101265.75
2022-07-27T02:07:32.963Z,101265.78
2022-07-27T02:09:59.791Z,101261.38
2022-07-27T02:12:35.483Z,101257.88
2022-07-27T02:15:14.898Z,101259.75
2022-07-27T02:17:45.063Z,101259.84
2022-07-27T02:20:15.349Z,101248.25
2022-07-27T02:22:43.033Z,101245.63
2022-07-27T02:25:12.175Z,101244.75
2022-07-27T02:27:43.145Z,101258.19
2022-07-27T02:30:12.306Z,101255.59
2022-07-27T02:32:44.100Z,101252.09
2022-07-27T02:35:18.831Z,101253.03
2022-07-27T02:37:48.519Z,101262.88
2022-07-27T02:40:17.492Z,101254.00
2022-07-27T02:42:45.713Z,101261.19
2022-07-27T02:45:13.489Z,101263.03
2022-07-27T02:47:40.425Z,101260.38
2022-07-27T02:50:09.826Z,101255.03
2022-07-27T02:52:37.376Z,101252.41
2022-07-27T02:55:05.426Z,101258.69
2022-07-27T02:57:34.352Z,101252.44
2022-07-27T03:00:07.437Z,101264.13
2022-07-27T03:02:34.243Z,101263.25
2022-07-27T03:05:01.098Z,101261.50
2022-07-27T03:07:27.976Z,101256.19
2022-07-27T03:09:54.774Z,101263.38
2022-07-27T03:12:21.553Z,101260.75
2022-07-27T03:14:48.342Z,101248.25
2022-07-27T03:17:15.120Z,101251.00
2022-07-27T03:19:41.933Z,101251.03
2022-07-27T03:22:08.879Z,101259.13
2022-07-27T03:24:35.708Z,101258.31
2022-07-27T03:27:02.491Z,101267.28
2022-07-27T03:29:29.449Z,101261.06
2022-07-27T03:31:56.525Z,101261.13
2022-07-27T03:34:23.522Z,101265.59
2022-07-27T03:36:50.517Z,101267.41
2022-07-27T03:39:17.497Z,101262.94
2022-07-27T03:41:44.286Z,101265.63
2022-07-27T03:44:11.083Z,101258.50
2022-07-27T03:46:37.940Z,101265.63
2022-07-27T03:49:14.441Z,101272.75
2022-07-27T03:51:42.164Z,101267.41
2022-07-27T03:54:08.968Z,101272.75
2022-07-27T03:56:35.943Z,101269.19
2022-07-27T03:59:02.827Z,101270.94
2022-07-27T04:01:29.774Z,101270.00
2022-07-27T04:03:56.609Z,101273.56
2022-07-27T04:06:23.405Z,101268.16
2022-07-27T04:08:50.769Z,101265.44
2022-07-27T04:11:20.702Z,101273.44
2022-07-27T04:13:51.845Z,101277.81
2022-07-27T04:16:18.841Z,101276.00
2022-07-27T04:18:45.718Z,101271.50
2022-07-27T04:21:13.334Z,101278.56
2022-07-27T04:23:40.136Z,101268.72
2022-07-27T04:26:06.963Z,101268.66
2022-07-27T04:28:34.905Z,101263.28
2022-07-27T04:31:01.775Z,101270.41
2022-07-27T04:33:28.871Z,101263.25
2022-07-27T04:35:55.827Z,101270.34
2022-07-27T04:38:22.752Z,101284.69
2022-07-27T04:40:50.484Z,101272.19
2022-07-27T04:43:19.106Z,101269.50
2022-07-27T04:45:47.458Z,101273.97
2022-07-27T04:48:14.570Z,101277.47
2022-07-27T04:50:43.199Z,101275.66
2022-07-27T04:53:11.332Z,101276.53
2022-07-27T04:55:42.126Z,101275.56
2022-07-27T04:58:09.178Z,101275.56
2022-07-27T05:00:36.117Z,101287.16
2022-07-27T05:03:03.320Z,101295.13
2022-07-27T05:05:30.614Z,101298.59
2022-07-27T05:07:57.587Z,101286.00
2022-07-27T05:10:25.510Z,101285.06
2022-07-27T05:12:52.332Z,101287.66
2022-07-27T05:15:19.329Z,101289.34
2022-07-27T05:17:46.353Z,101289.22
2022-07-27T05:20:13.838Z,101288.94
2022-07-27T05:22:40.641Z,101291.41
2022-07-27T05:25:08.330Z,101291.16
2022-07-27T05:27:37.095Z,101304.94
2022-07-27T05:30:06.242Z,101290.53
2022-07-27T05:32:33.235Z,101292.13
2022-07-27T05:35:00.053Z,101297.16
2022-07-27T05:37:26.885Z,101297.59
2022-07-27T05:39:53.698Z,101302.31
2022-07-27T05:42:20.465Z,101288.03
2022-07-27T05:44:47.270Z,101291.97
2022-07-27T05:47:14.147Z,101301.31
2022-07-27T05:49:40.985Z,101301.38
2022-07-27T05:52:07.794Z,101306.22
2022-07-27T05:54:34.655Z,101310.13
2022-07-27T05:57:01.454Z,101312.16
2022-07-27T05:59:29.389Z,101320.53
2022-07-27T06:01:56.192Z,101319.72
2022-07-27T06:04:22.980Z,101319.53
2022-07-27T06:07:08.181Z,101325.66
2022-07-27T06:09:34.996Z,101332.06
2022-07-27T06:12:02.122Z,101337.19
2022-07-27T06:14:28.900Z,101335.13
2022-07-27T06:16:55.816Z,101327.53
2022-07-27T06:19:22.651Z,101338.31
2022-07-27T06:21:53.590Z,101325.41
2022-07-27T06:24:20.821Z,101340.13
2022-07-27T06:26:47.615Z,101338.31
2022-07-27T06:29:15.146Z,101329.72
2022-07-27T06:31:42.243Z,101333.03
2022-07-27T06:34:11.739Z,101333.81
2022-07-27T06:36:41.117Z,101336.91
2022-07-27T06:39:08.213Z,101347.88
2022-07-27T06:41:35.129Z,101341.78
2022-07-27T06:44:01.917Z,101341.84
2022-07-27T06:46:28.819Z,101334.81
2022-07-27T06:48:56.711Z,101328.41
2022-07-27T06:51:24.359Z,101334.28
2022-07-27T06:53:54.370Z,101328.13
2022-07-27T06:56:22.141Z,101333.00
2022-07-27T06:58:49.360Z,101328.84
2022-07-27T07:01:16.326Z,101338.56
2022-07-27T07:03:43.386Z,101338.78
2022-07-27T07:06:10.561Z,101337.47
2022-07-27T07:08:37.342Z,101329.34
2022-07-27T07:11:04.340Z,101333.66
2022-07-27T07:13:34.167Z,101328.09
2022-07-27T07:16:04.492Z,101334.78
2022-07-27T07:18:31.336Z,101329.53
2022-07-27T07:20:58.957Z,101327.19
2022-07-27T07:23:25.724Z,101322.91
2022-07-27T07:25:52.603Z,101330.91
2022-07-27T07:28:22.100Z,101328.88
2022-07-27T07:30:49.644Z,101337.91
2022-07-27T07:33:16.511Z,101344.50
2022-07-27T07:36:13.440Z,101340.41
2022-07-27T07:38:30.340Z,101345.25
2022-07-27T07:40:57.140Z,101342.97
2022-07-27T07:43:24.045Z,101342.63
2022-07-27T07:45:52.222Z,101337.28
2022-07-27T07:48:23.060Z,101333.72
2022-07-27T07:50:52.999Z,101336.88
2022-07-27T07:53:22.636Z,101332.09
2022-07-27T07:55:50.182Z,101353.56
2022-07-27T07:58:16.963Z,101347.81
2022-07-27T08:00:43.909Z,101348.69
2022-07-27T08:03:10.996Z,101352.88
2022-07-27T08:05:37.955Z,101349.16
2022-07-27T08:08:05.038Z,101359.72
2022-07-27T08:10:32.097Z,101356.38
2022-07-27T08:12:58.935Z,101355.69
2022-07-27T08:15:35.428Z,101361.34
2022-07-27T08:18:07.306Z,101355.03
2022-07-27T08:20:34.735Z,101357.63
2022-07-27T08:23:02.254Z,101355.78
2022-07-27T08:25:29.450Z,101357.50
2022-07-27T08:27:56.537Z,101357.28
2022-07-27T08:30:24.005Z,101364.00
2022-07-27T08:33:01.183Z,101353.16
2022-07-27T08:35:29.466Z,101365.56
2022-07-27T08:37:57.054Z,101360.34
2022-07-27T08:40:42.964Z,101362.81
2022-07-27T08:43:18.940Z,101357.97
2022-07-27T08:45:56.357Z,101357.47
2022-07-27T08:48:25.996Z,101351.84
2022-07-27T08:50:54.058Z,101351.97
2022-07-27T08:53:22.561Z,101352.69
2022-07-27T08:55:50.101Z,101356.50
2022-07-27T08:58:17.454Z,101348.81
2022-07-27T09:00:48.010Z,101349.91
2022-07-27T09:03:19.448Z,101345.81
2022-07-27T09:05:58.391Z,101349.72
2022-07-27T09:08:31.411Z,101345.97
2022-07-27T09:10:59.485Z,101347.47
2022-07-27T09:13:30.454Z,101340.25
2022-07-27T09:16:17.974Z,101336.38
2022-07-27T09:18:45.933Z,101333.34
2022-07-27T09:21:24.027Z,101335.94
2022-07-27T09:24:17.915Z,101341.34
2022-07-27T09:27:02.700Z,101341.19
2022-07-27T09:29:35.849Z,101339.84
2022-07-27T09:32:17.514Z,101347.28
2022-07-27T09:34:45.104Z,101339.84
2022-07-27T09:37:12.289Z,101329.22
2022-07-27T09:39:39.225Z,101331.81
2022-07-27T09:42:06.170Z,101324.63
2022-07-27T09:44:42.109Z,101321.47
2022-07-27T09:47:28.524Z,101327.41
2022-07-27T09:50:20.478Z,101328.22
2022-07-27T09:52:47.621Z,101326.00
2022-07-27T09:55:14.568Z,101328.13
2022-07-27T09:57:56.453Z,101332.66
2022-07-27T10:00:24.914Z,101322.72
2022-07-27T10:02:53.334Z,101323.97
2022-07-27T10:05:24.146Z,101324.03
2022-07-27T10:07:53.887Z,101325.94
2022-07-27T10:10:22.881Z,101328.13
2022-07-27T10:12:54.597Z,101327.09
2022-07-27T10:15:23.975Z,101334.44
2022-07-27T10:18:02.064Z,101330.91
2022-07-27T10:20:33.360Z,101331.22
2022-07-27T10:23:00.326Z,101328.13
2022-07-27T10:25:32.304Z,101327.47
2022-07-27T10:28:16.392Z,101321.63
2022-07-27T10:30:43.940Z,101333.03
2022-07-27T10:33:47.147Z,101335.66
2022-07-27T10:36:30.762Z,101339.19
2022-07-27T10:39:01.184Z,101340.94
2022-07-27T10:41:34.213Z,101333.84
2022-07-27T10:44:20.869Z,101332.22
2022-07-27T10:47:04.483Z,101328.72
2022-07-27T10:49:40.397Z,101327.63
2022-07-27T10:53:05.091Z,101318.31
2022-07-27T10:55:32.380Z,101319.78
2022-07-27T10:58:22.100Z,101318.63
2022-07-27T11:00:58.306Z,101324.66
2022-07-27T11:03:33.442Z,101319.19
2022-07-27T11:06:31.912Z,101320.94
2022-07-27T11:11:49.434Z,101321.66
2022-07-27T11:14:18.912Z,101322.97
2022-07-27T11:16:55.852Z,101329.03
2022-07-27T11:19:23.985Z,101328.88
2022-07-27T11:21:52.384Z,101331.44
2022-07-27T11:24:19.239Z,101324.81
2022-07-27T11:26:49.927Z,101331.66
2022-07-27T11:29:19.858Z,101321.88
2022-07-27T11:31:56.695Z,101331.28
2022-07-27T11:34:36.360Z,101318.50
2022-07-27T11:37:13.976Z,101327.13
2022-07-27T11:39:59.882Z,101333.91
2022-07-27T11:42:40.353Z,101331.78
2022-07-27T11:45:07.806Z,101320.28
2022-07-27T11:47:35.722Z,101323.00
2022-07-27T11:50:11.976Z,101328.53
2022-07-27T11:52:39.064Z,101328.72
2022-07-27T11:55:07.771Z,101331.25
2022-07-27T11:57:35.969Z,101325.84
2022-07-27T12:00:05.080Z,101333.19
2022-07-27T12:02:31.978Z,101319.47
2022-07-27T12:05:02.957Z,101332.56
2022-07-27T12:07:32.572Z,101330.19
2022-07-27T12:10:02.408Z,101321.91
2022-07-27T12:12:34.850Z,101321.09
2022-07-27T12:15:44.822Z,101319.91
2022-07-27T12:18:02.892Z,101327.06
2022-07-27T12:20:35.193Z,101324.44
2022-07-27T12:23:08.087Z,101316.38
2022-07-27T12:25:36.184Z,101319.97
2022-07-27T12:28:15.064Z,101316.06
2022-07-27T12:30:47.199Z,101312.28
2022-07-27T12:33:37.635Z,101312.75
2022-07-27T12:36:07.814Z,101310.41
2022-07-27T12:38:45.820Z,101309.28
2022-07-27T12:41:32.552Z,101312.44
2022-07-27T12:44:11.946Z,101303.84
2022-07-27T12:46:59.293Z,101296.31
2022-07-27T12:49:28.642Z,101291.09
2022-07-27T12:52:09.454Z,101309.50
2022-07-27T12:54:37.381Z,101300.41
2022-07-27T12:57:04.543Z,101298.00
2022-07-27T12:59:31.367Z,101305.38
2022-07-27T13:01:58.270Z,101311.84
2022-07-27T13:04:25.209Z,101319.13
2022-07-27T13:06:52.009Z,101319.13
2022-07-27T13:09:18.842Z,101316.47
2022-07-27T13:11:48.147Z,101320.84
2022-07-27T13:14:15.574Z,101315.34
2022-07-27T13:16:42.442Z,101317.81
2022-07-27T13:19:09.605Z,101319.41
2022-07-27T13:21:36.717Z,101316.69
2022-07-27T13:24:03.786Z,101318.63
2022-07-27T13:26:30.564Z,101315.09
2022-07-27T13:28:57.402Z,101310.59
2022-07-27T13:31:24.230Z,101309.84
2022-07-27T13:33:52.056Z,101307.38
2022-07-27T13:36:18.848Z,101310.41
2022-07-27T13:38:45.645Z,101302.59
2022-07-27T13:41:12.553Z,101301.91
2022-07-27T13:43:39.386Z,101308.59
2022-07-27T13:46:08.400Z,101310.97
2022-07-27T13:48:35.371Z,101299.31
2022-07-27T13:51:03.397Z,101292.13
2022-07-27T13:53:30.491Z,101289.50
2022-07-27T13:55:57.276Z,101294.31
2022-07-27T13:58:24.246Z,101300.88
2022-07-27T14:00:51.709Z,101290.91
2022-07-27T14:03:18.695Z,101309.78
2022-07-27T14:05:49.588Z,101294.56
2022-07-27T14:08:18.608Z,101302.59
2022-07-27T14:10:45.430Z,101298.84
2022-07-27T14:13:15.917Z,101299.81
2022-07-27T14:15:53.489Z,101300.63
2022-07-27T14:18:26.560Z,101295.34
2022-07-27T14:20:55.723Z,101299.28
2022-07-27T14:23:24.014Z,101308.69
2022-07-27T14:25:51.804Z,101301.16
2022-07-27T14:28:18.682Z,101310.75
2022-07-27T14:30:47.080Z,101310.03
2022-07-27T14:33:14.776Z,101315.91
2022-07-27T14:35:42.062Z,101316.28
2022-07-27T14:38:10.044Z,101315.91
2022-07-27T14:40:37.920Z,101309.84
2022-07-27T14:43:05.370Z,101316.28
2022-07-27T14:45:43.977Z,101311.97
2022-07-27T14:48:15.942Z,101302.09
2022-07-27T14:50:46.146Z,101312.06
2022-07-27T14:53:13.205Z,101299.25
2022-07-27T14:55:42.327Z,101301.78
2022-07-27T14:58:11.227Z,101302.34
2022-07-27T15:00:39.751Z,101291.41
2022-07-27T15:03:07.249Z,101291.50
2022-07-27T15:05:50.019Z,101299.72
2022-07-27T15:08:20.589Z,101292.59
2022-07-27T15:10:48.722Z,101296.19
2022-07-27T15:13:16.285Z,101294.47
2022-07-27T15:15:43.127Z,101292.69
2022-07-27T15:18:10.086Z,101290.63
2022-07-27T15:20:36.933Z,101293.09
2022-07-27T15:23:04.316Z,101288.22
2022-07-27T15:25:31.115Z,101295.09
2022-07-27T15:27:58.237Z,101289.34
2022-07-27T15:30:25.037Z,101286.22
2022-07-27T15:32:51.835Z,101285.66
2022-07-27T15:35:18.689Z,101290.59
2022-07-27T15:37:54.560Z,101284.03
2022-07-27T15:40:38.374Z,101283.16
2022-07-27T15:43:10.474Z,101283.25
2022-07-27T15:45:47.093Z,101272.28
2022-07-27T15:48:16.210Z,101288.50
2022-07-27T15:50:48.351Z,101284.03
2022-07-27T15:53:15.558Z,101287.88
2022-07-27T15:55:43.722Z,101292.53
2022-07-27T15:58:11.430Z,101293.31
2022-07-27T16:00:40.903Z,101282.78
2022-07-27T16:03:10.433Z,101288.38
2022-07-27T16:05:38.692Z,101297.81
2022-07-27T16:08:07.481Z,101299.19
2022-07-27T16:10:34.326Z,101294.06
2022-07-27T16:13:01.330Z,101291.50
2022-07-27T16:15:47.120Z,101282.78
2022-07-27T16:18:13.964Z,101281.22
2022-07-27T16:20:40.793Z,101290.47
2022-07-27T16:23:14.417Z,101289.75
2022-07-27T16:26:02.534Z,101295.41
2022-07-27T16:28:32.190Z,101301.31
2022-07-27T16:30:59.133Z,101296.25
2022-07-27T16:33:26.160Z,101294.06
2022-07-27T16:35:53.130Z,101298.06
2022-07-27T16:38:19.963Z,101290.25
2022-07-27T16:40:46.800Z,101297.72
2022-07-27T16:43:13.593Z,101292.59
2022-07-27T16:45:40.421Z,101293.69
2022-07-27T16:48:07.855Z,101297.50
2022-07-27T16:50:34.897Z,101297.75
2022-07-27T16:53:01.669Z,101297.97
2022-07-27T16:55:28.669Z,101300.91
2022-07-27T16:57:55.880Z,101295.66
2022-07-27T17:00:23.254Z,101297.53
2022-07-27T17:02:50.469Z,101300.25
2022-07-27T17:05:17.271Z,101294.94
2022-07-27T17:07:44.071Z,101305.75
2022-07-27T17:10:10.934Z,101298.41
2022-07-27T17:12:39.070Z,101301.06
2022-07-27T17:15:07.765Z,101300.19
2022-07-27T17:17:34.895Z,101301.06
2022-07-27T17:20:01.799Z,101300.19
2022-07-27T17:22:28.603Z,101301.13
2022-07-27T17:24:55.434Z,101294.94
2022-07-27T17:27:22.302Z,101293.00
2022-07-27T17:29:51.481Z,101301.13
2022-07-27T17:32:18.305Z,101295.88
2022-07-27T17:34:45.549Z,101288.63
2022-07-27T17:37:13.091Z,101291.41
2022-07-27T17:39:39.902Z,101290.44
2022-07-27T17:42:07.054Z,101292.28
2022-07-27T17:44:34.072Z,101292.34
2022-07-27T17:47:01.712Z,101284.38
2022-07-27T17:49:28.683Z,101291.63
2022-07-27T17:51:55.986Z,101287.97
2022-07-27T17:54:24.303Z,101288.84
2022-07-27T17:56:51.104Z,101287.09
2022-07-27T17:59:37.178Z,101286.13
2022-07-27T18:02:05.292Z,101288.84
2022-07-27T18:04:38.939Z,101284.38
2022-07-27T18:07:06.391Z,101280.84
2022-07-27T18:09:33.602Z,101280.94
2022-07-27T18:12:00.462Z,101278.31
2022-07-27T18:14:27.425Z,101272.94
2022-07-27T18:16:54.275Z,101281.06
2022-07-27T18:19:21.151Z,101268.41
2022-07-27T18:21:47.953Z,101277.66
2022-07-27T18:24:15.673Z,101275.91
2022-07-27T18:26:42.616Z,101286.88
2022-07-27T18:29:09.939Z,101286.19
2022-07-27T18:31:37.353Z,101283.78
2022-07-27T18:34:06.849Z,101293.00
2022-07-27T18:36:38.745Z,101293.41
2022-07-27T18:39:05.730Z,101293.69
2022-07-27T18:41:32.509Z,101290.53
2022-07-27T18:43:59.334Z,101298.19
2022-07-27T18:46:26.633Z,101294.94
2022-07-27T18:48:53.609Z,101306.03
2022-07-27T18:51:21.564Z,101302.75
2022-07-27T18:53:48.927Z,101307.50
2022-07-27T18:56:15.933Z,101303.25
2022-07-27T18:58:42.759Z,101305.34
2022-07-27T19:01:09.719Z,101311.00
2022-07-27T19:03:37.247Z,101313.94
2022-07-27T19:06:06.736Z,101318.47
2022-07-27T19:08:37.332Z,101319.59
2022-07-27T19:11:04.130Z,101319.72
2022-07-27T19:13:30.917Z,101322.63
2022-07-27T19:16:00.744Z,101330.84
2022-07-27T19:18:27.556Z,101340.03
2022-07-27T19:20:55.393Z,101341.97
2022-07-27T19:23:23.399Z,101342.16
2022-07-27T19:25:50.246Z,101347.72
2022-07-27T19:28:20.810Z,101349.63
2022-07-27T19:30:48.595Z,101357.06
2022-07-27T19:33:15.419Z,101352.66
2022-07-27T19:35:42.409Z,101361.78
2022-07-27T19:38:10.485Z,101367.44
2022-07-27T19:40:45.846Z,101363.19
2022-07-27T19:43:15.108Z,101371.47
2022-07-27T19:45:42.153Z,101370.81
2022-07-27T19:48:09.250Z,101368.41
2022-07-27T19:50:36.039Z,101362.31
2022-07-27T19:53:04.109Z,101375.94
2022-07-27T19:55:30.904Z,101373.41
2022-07-27T19:57:57.684Z,101386.19
2022-07-27T20:00:24.606Z,101386.41
2022-07-27T20:02:51.530Z,101390.13
2022-07-27T20:05:18.462Z,101385.88
2022-07-27T20:07:45.346Z,101396.00
2022-07-27T20:10:12.351Z,101397.06
2022-07-27T20:12:39.204Z,101400.84
2022-07-27T20:15:06.785Z,101401.94
2022-07-27T20:17:37.570Z,101401.31
2022-07-27T20:20:08.963Z,101406.91
2022-07-27T20:22:35.981Z,101416.03
2022-07-27T20:25:03.027Z,101418.91
2022-07-27T20:27:29.865Z,101418.22
2022-07-27T20:29:56.697Z,101420.22
2022-07-27T20:32:23.562Z,101422.19
2022-07-27T20:34:50.350Z,101426.00
2022-07-27T20:37:17.594Z,101423.53
2022-07-27T20:39:44.417Z,101421.03
2022-07-27T20:42:11.247Z,101418.47
2022-07-27T20:44:38.062Z,101416.75
2022-07-27T20:47:06.201Z,101421.47
2022-07-27T20:49:34.232Z,101422.44
2022-07-27T20:52:01.975Z,101424.34
2022-07-27T20:54:29.586Z,101434.34
2022-07-27T20:56:56.995Z,101426.41
2022-07-27T20:59:24.162Z,101428.38
2022-07-27T21:01:52.513Z,101432.16
2022-07-27T21:04:20.335Z,101434.91
2022-07-27T21:06:47.162Z,101431.50
2022-07-27T21:09:14.421Z,101436.97
2022-07-27T21:11:41.488Z,101433.53
2022-07-27T21:14:09.540Z,101433.66
2022-07-27T21:16:37.095Z,101441.75
2022-07-27T21:19:04.033Z,101440.94
2022-07-27T21:21:30.822Z,101440.19
2022-07-27T21:24:17.347Z,101452.81
2022-07-27T21:26:48.667Z,101452.13
2022-07-27T21:29:16.410Z,101451.31
2022-07-27T21:31:46.852Z,101460.34
2022-07-27T21:34:18.841Z,101457.75
2022-07-27T21:36:46.718Z,101467.75
2022-07-27T21:39:13.593Z,101461.63
2022-07-27T21:41:40.746Z,101458.16
2022-07-27T21:44:07.567Z,101459.22
2022-07-27T21:46:34.352Z,101463.81
2022-07-27T21:49:01.201Z,101460.38
2022-07-27T21:51:28.108Z,101463.16
2022-07-27T21:53:55.057Z,101464.22
2022-07-27T21:56:21.875Z,101467.00
2022-07-27T21:58:48.887Z,101470.69
2022-07-27T22:01:16.574Z,101463.66
2022-07-27T22:03:44.025Z,101468.28
2022-07-27T22:06:11.248Z,101469.31
2022-07-27T22:08:38.782Z,101467.72
2022-07-27T22:11:05.854Z,101463.34
2022-07-27T22:13:32.763Z,101459.84
2022-07-27T22:15:59.658Z,101477.81
2022-07-27T22:18:26.505Z,101471.63
2022-07-27T22:20:53.288Z,101472.66
2022-07-27T22:23:20.253Z,101479.00
2022-07-27T22:25:47.051Z,101479.00
2022-07-27T22:28:13.856Z,101473.66
2022-07-27T22:30:40.887Z,101479.03
2022-07-27T22:33:08.066Z,101483.50
2022-07-27T22:35:35.247Z,101485.28
2022-07-27T22:38:02.388Z,101484.41
2022-07-27T22:40:29.217Z,101479.13
2022-07-27T22:42:56.085Z,101476.53
2022-07-27T22:45:23.151Z,101477.50
2022-07-27T22:47:50.370Z,101476.66
2022-07-27T22:50:20.222Z,101476.75
2022-07-27T22:52:48.194Z,101478.59
2022-07-27T22:55:15.831Z,101480.47
2022-07-27T22:57:42.656Z,101483.25
2022-07-27T23:00:10.517Z,101483.28
2022-07-27T23:02:38.011Z,101477.03
2022-07-27T23:05:05.467Z,101482.50
2022-07-27T23:07:32.402Z,101478.94
2022-07-27T23:09:59.193Z,101486.16
2022-07-27T23:12:25.979Z,101479.03
2022-07-27T23:14:52.833Z,101477.31
2022-07-27T23:17:19.631Z,101478.22
2022-07-27T23:19:46.407Z,101480.94
2022-07-27T23:22:13.268Z,101476.53
2022-07-27T23:24:44.153Z,101485.50
2022-07-27T23:27:11.943Z,101485.59
2022-07-27T23:29:38.733Z,101483.81
2022-07-27T23:32:08.203Z,101482.09
2022-07-27T23:34:35.885Z,101480.38
2022-07-27T23:37:02.697Z,101483.13
2022-07-27T23:39:29.519Z,101479.63
2022-07-27T23:41:56.391Z,101484.16
2022-07-27T23:44:23.231Z,101487.78
2022-07-27T23:46:50.330Z,101483.38
2022-07-27T23:49:17.252Z,101482.56
2022-07-27T23:51:44.757Z,101481.72
2022-07-27T23:54:11.923Z,101480.00
2022-07-27T23:56:39.002Z,101484.59
2022-07-27T23:59:05.802Z,101482.91
